createdAt,value
2023-02-02T00:01:58.662Z,2.37
2023-02-02T00:04:33.702Z,2.03
2023-02-02T00:07:03.008Z,1.53
2023-02-02T00:09:32.439Z,1.40
2023-02-02T00:12:01.602Z,1.77
2023-02-02T00:14:30.466Z,2.97
2023-02-02T00:16:58.379Z,2.53
2023-02-02T00:19:32.316Z,2.13
2023-02-02T00:21:59.531Z,1.87
2023-02-02T00:24:26.810Z,1.07
2023-02-02T00:26:59.857Z,0.77
2023-02-02T00:29:31.133Z,2.97
2023-02-02T00:31:58.260Z,2.37
2023-02-02T00:34:26.001Z,2.47
2023-02-02T00:36:53.716Z,1.63
2023-02-02T00:39:26.183Z,2.90
2023-02-02T00:41:54.230Z,1.40
2023-02-02T00:44:39.879Z,2.37
2023-02-02T00:47:07.029Z,1.30
2023-02-02T00:49:34.095Z,1.27
2023-02-02T00:52:01.073Z,2.70
2023-02-02T00:54:28.530Z,2.80
2023-02-02T00:56:55.511Z,1.53
2023-02-02T00:59:22.423Z,2.90
2023-02-02T01:01:49.614Z,2.30
2023-02-02T01:04:16.592Z,1.67
2023-02-02T01:06:43.550Z,2.60
2023-02-02T01:09:10.716Z,1.70
2023-02-02T01:11:37.660Z,1.77
2023-02-02T01:14:05.990Z,2.47
2023-02-02T01:16:33.099Z,2.00
2023-02-02T01:19:00.102Z,2.40
2023-02-02T01:21:27.123Z,1.80
2023-02-02T01:23:53.988Z,3.10
2023-02-02T01:26:21.105Z,1.57
2023-02-02T01:28:48.195Z,1.50
2023-02-02T01:31:19.141Z,2.80
2023-02-02T01:33:48.493Z,2.47
2023-02-02T01:36:26.070Z,2.17
2023-02-02T01:38:52.965Z,1.90
2023-02-02T01:41:24.776Z,2.10
2023-02-02T01:44:05.024Z,3.23
2023-02-02T01:46:35.948Z,2.30
2023-02-02T01:49:13.267Z,2.93
2023-02-02T01:52:00.480Z,3.37
2023-02-02T01:54:38.138Z,2.30
2023-02-02T01:57:40.855Z,2.07
2023-02-02T02:00:14.006Z,2.87
2023-02-02T02:02:46.585Z,3.33
2023-02-02T02:05:21.498Z,2.43
2023-02-02T02:07:51.946Z,2.40
2023-02-02T02:10:19.301Z,2.10
2023-02-02T02:12:48.396Z,1.70
2023-02-02T02:15:34.260Z,3.53
2023-02-02T02:18:23.757Z,3.17
2023-02-02T02:21:45.702Z,3.60
2023-02-02T02:25:21.746Z,3.10
2023-02-02T02:28:23.113Z,2.80
2023-02-02T02:31:00.281Z,2.33
2023-02-02T02:34:04.951Z,2.67
2023-02-02T02:37:11.924Z,2.93
2023-02-02T02:40:06.885Z,1.73
2023-02-02T02:42:42.604Z,1.77
2023-02-02T02:45:12.576Z,2.70
2023-02-02T02:47:42.113Z,2.90
2023-02-02T02:50:12.690Z,4.13
2023-02-02T02:52:43.067Z,3.07
2023-02-02T02:55:11.660Z,2.30
2023-02-02T02:58:14.045Z,3.00
2023-02-02T03:01:09.363Z,1.97
2023-02-02T03:04:10.731Z,3.03
2023-02-02T03:07:05.294Z,2.13
2023-02-02T03:09:40.591Z,2.70
2023-02-02T03:12:08.110Z,3.17
2023-02-02T03:14:41.353Z,1.97
2023-02-02T03:17:08.686Z,2.10
2023-02-02T03:19:36.280Z,2.90
2023-02-02T03:22:03.650Z,2.33
2023-02-02T03:24:33.760Z,2.33
2023-02-02T03:27:07.169Z,2.17
2023-02-02T03:29:34.447Z,1.77
2023-02-02T03:32:01.582Z,2.20
2023-02-02T03:34:28.884Z,2.43
2023-02-02T03:36:58.842Z,1.33
2023-02-02T03:39:26.080Z,1.20
2023-02-02T03:41:55.883Z,2.07
2023-02-02T03:44:25.531Z,1.80
2023-02-02T03:46:59.031Z,1.60
2023-02-02T03:49:28.784Z,1.57
2023-02-02T03:51:55.926Z,2.17
2023-02-02T03:54:22.962Z,2.73
2023-02-02T03:56:51.404Z,3.43
2023-02-02T03:59:18.620Z,2.07
2023-02-02T04:01:47.961Z,2.33
2023-02-02T04:04:15.752Z,3.10
2023-02-02T04:06:42.767Z,2.07
2023-02-02T04:09:09.856Z,2.73
2023-02-02T04:11:36.783Z,2.40
2023-02-02T04:14:03.868Z,1.47
2023-02-02T04:16:34.756Z,1.83
2023-02-02T04:19:01.774Z,2.30
2023-02-02T04:21:28.677Z,1.63
2023-02-02T04:23:57.113Z,1.83
2023-02-02T04:26:27.132Z,2.33
2023-02-02T04:28:54.373Z,2.77
2023-02-02T04:31:21.424Z,1.33
2023-02-02T04:33:48.389Z,2.10
2023-02-02T04:36:16.612Z,2.03
2023-02-02T04:38:53.631Z,1.97
2023-02-02T04:41:22.183Z,2.10
2023-02-02T04:43:49.793Z,2.27
2023-02-02T04:46:17.086Z,2.30
2023-02-02T04:48:44.099Z,2.40
2023-02-02T04:51:14.373Z,2.23
2023-02-02T04:53:42.641Z,2.27
2023-02-02T04:56:16.251Z,1.73
2023-02-02T04:58:45.579Z,1.53
2023-02-02T05:01:19.820Z,1.70
2023-02-02T05:03:49.100Z,1.77
2023-02-02T05:06:17.798Z,2.27
2023-02-02T05:08:48.948Z,1.37
2023-02-02T05:11:22.259Z,2.20
2023-02-02T05:13:55.423Z,1.83
2023-02-02T05:16:24.200Z,2.27
2023-02-02T05:18:57.019Z,2.37
2023-02-02T05:21:26.018Z,2.00
2023-02-02T05:23:53.261Z,1.53
2023-02-02T05:26:26.421Z,1.57
2023-02-02T05:28:54.059Z,1.37
2023-02-02T05:31:21.525Z,1.83
2023-02-02T05:33:51.409Z,2.07
2023-02-02T05:36:18.702Z,1.30
2023-02-02T05:38:45.703Z,2.37
2023-02-02T05:41:12.826Z,1.73
2023-02-02T05:43:47.730Z,2.03
2023-02-02T05:46:14.873Z,2.17
2023-02-02T05:48:41.969Z,2.00
2023-02-02T05:51:29.875Z,1.27
2023-02-02T05:53:57.143Z,1.37
2023-02-02T05:56:24.217Z,2.17
2023-02-02T05:58:51.251Z,1.80
2023-02-02T06:01:26.868Z,1.70
2023-02-02T06:03:56.893Z,0.47
2023-02-02T06:06:24.033Z,1.40
2023-02-02T06:08:50.953Z,1.87
2023-02-02T06:11:19.405Z,1.57
2023-02-02T06:13:46.714Z,1.23
2023-02-02T06:16:14.003Z,1.97
2023-02-02T06:18:41.286Z,1.57
2023-02-02T06:21:08.479Z,1.73
2023-02-02T06:23:40.714Z,2.00
2023-02-02T06:26:08.239Z,2.00
2023-02-02T06:28:37.680Z,1.30
2023-02-02T06:31:11.599Z,1.80
2023-02-02T06:33:38.879Z,1.70
2023-02-02T06:36:07.607Z,1.83
2023-02-02T06:38:34.573Z,3.63
2023-02-02T06:41:03.212Z,2.37
2023-02-02T06:43:31.440Z,1.70
2023-02-02T06:45:59.002Z,2.13
2023-02-02T06:48:27.258Z,1.27
2023-02-02T06:50:54.408Z,1.73
2023-02-02T06:53:24.950Z,1.60
2023-02-02T06:55:57.531Z,1.00
2023-02-02T06:58:24.610Z,1.60
2023-02-02T07:00:52.008Z,1.70
2023-02-02T07:03:21.403Z,1.43
2023-02-02T07:05:51.462Z,1.70
2023-02-02T07:08:18.382Z,1.40
2023-02-02T07:11:13.127Z,1.67
2023-02-02T07:13:32.450Z,1.83
2023-02-02T07:16:02.755Z,1.80
2023-02-02T07:18:32.442Z,5.07
2023-02-02T07:21:01.112Z,4.20
2023-02-02T07:23:30.492Z,1.90
2023-02-02T07:26:07.073Z,2.40
2023-02-02T07:28:34.939Z,1.53
2023-02-02T07:31:20.910Z,1.70
2023-02-02T07:33:49.025Z,1.33
2023-02-02T07:36:20.360Z,1.90
2023-02-02T07:38:50.373Z,2.00
2023-02-02T07:41:18.359Z,2.40
2023-02-02T07:43:48.658Z,1.87
2023-02-02T07:46:18.047Z,1.70
2023-02-02T07:48:48.968Z,2.23
2023-02-02T07:51:18.451Z,2.03
2023-02-02T07:53:53.407Z,1.00
2023-02-02T07:56:30.408Z,2.07
2023-02-02T07:58:59.159Z,1.43
2023-02-02T08:01:28.401Z,2.57
2023-02-02T08:04:00.483Z,2.00
2023-02-02T08:06:37.928Z,1.37
2023-02-02T08:09:08.662Z,1.90
2023-02-02T08:11:39.668Z,2.37
2023-02-02T08:14:07.330Z,2.43
2023-02-02T08:16:36.922Z,1.87
2023-02-02T08:19:04.029Z,1.00
2023-02-02T08:21:34.893Z,1.47
2023-02-02T08:24:03.203Z,2.13
2023-02-02T08:26:34.322Z,1.90
2023-02-02T08:29:07.700Z,1.60
2023-02-02T08:31:41.678Z,1.53
2023-02-02T08:34:09.237Z,1.77
2023-02-02T08:36:36.936Z,1.20
2023-02-02T08:39:08.686Z,1.10
2023-02-02T08:41:37.570Z,1.60
2023-02-02T08:44:11.627Z,1.90
2023-02-02T08:46:38.886Z,1.67
2023-02-02T08:49:06.277Z,1.93
2023-02-02T08:51:33.225Z,1.33
2023-02-02T08:54:00.213Z,2.27
2023-02-02T08:56:27.355Z,1.50
2023-02-02T08:59:00.450Z,2.03
2023-02-02T09:01:30.704Z,2.30
2023-02-02T09:04:04.762Z,1.23
2023-02-02T09:06:39.857Z,1.83
2023-02-02T09:09:12.783Z,2.50
2023-02-02T09:11:40.713Z,1.70
2023-02-02T09:14:11.864Z,1.33
2023-02-02T09:16:40.068Z,2.17
2023-02-02T09:19:07.422Z,1.83
2023-02-02T09:21:36.835Z,2.03
2023-02-02T09:24:11.723Z,2.13
2023-02-02T09:26:40.343Z,1.90
2023-02-02T09:29:12.361Z,1.70
2023-02-02T09:31:39.959Z,1.57
2023-02-02T09:34:14.180Z,1.80
2023-02-02T09:36:42.841Z,1.47
2023-02-02T09:39:14.966Z,2.17
2023-02-02T09:41:43.397Z,1.97
2023-02-02T09:44:37.465Z,1.50
2023-02-02T09:48:19.947Z,1.87
2023-02-02T09:51:17.381Z,1.50
2023-02-02T09:53:56.239Z,1.70
2023-02-02T09:56:39.287Z,2.10
2023-02-02T09:59:23.467Z,1.70
2023-02-02T10:01:58.358Z,1.40
2023-02-02T10:04:40.308Z,1.50
2023-02-02T10:07:33.353Z,1.70
2023-02-02T10:10:11.313Z,1.87
2023-02-02T10:13:22.996Z,1.30
2023-02-02T10:16:17.063Z,0.90
2023-02-02T10:19:04.519Z,1.70
2023-02-02T10:22:01.415Z,0.53
2023-02-02T10:24:31.144Z,1.80
2023-02-02T10:27:06.919Z,0.90
2023-02-02T10:30:00.978Z,1.27
2023-02-02T10:32:45.507Z,1.27
2023-02-02T10:35:27.321Z,1.30
2023-02-02T10:38:36.577Z,1.10
2023-02-02T10:41:54.890Z,1.17
2023-02-02T10:44:59.028Z,1.33
2023-02-02T10:47:33.327Z,1.03
2023-02-02T10:50:12.544Z,1.00
2023-02-02T10:52:52.278Z,1.40
2023-02-02T10:55:48.137Z,1.13
2023-02-02T10:58:42.478Z,1.33
2023-02-02T11:01:11.644Z,0.67
2023-02-02T11:03:40.196Z,1.30
2023-02-02T11:06:27.132Z,0.97
2023-02-02T11:09:09.221Z,1.23
2023-02-02T11:11:45.359Z,1.20
2023-02-02T11:14:46.141Z,1.30
2023-02-02T11:17:26.537Z,1.40
2023-02-02T11:19:58.289Z,1.20
2023-02-02T11:22:29.013Z,1.10
2023-02-02T11:25:07.511Z,1.10
2023-02-02T11:27:42.506Z,1.37
2023-02-02T11:30:39.216Z,1.20
2023-02-02T11:33:33.845Z,1.07
2023-02-02T11:36:21.128Z,1.27
2023-02-02T11:39:09.615Z,1.13
2023-02-02T11:41:37.521Z,1.80
2023-02-02T11:44:06.519Z,1.40
2023-02-02T11:46:38.619Z,1.30
2023-02-02T11:49:19.009Z,0.97
2023-02-02T11:52:04.783Z,1.33
2023-02-02T11:54:37.104Z,1.00
2023-02-02T11:57:10.328Z,1.20
2023-02-02T11:59:45.839Z,0.97
2023-02-02T12:02:27.681Z,0.70
2023-02-02T12:05:15.592Z,1.33
2023-02-02T12:07:44.450Z,1.10
2023-02-02T12:10:32.999Z,1.20
2023-02-02T12:13:46.072Z,1.20
2023-02-02T12:16:36.910Z,1.40
2023-02-02T12:19:31.459Z,0.87
2023-02-02T12:22:31.398Z,1.10
2023-02-02T12:25:34.219Z,1.33
2023-02-02T12:28:42.206Z,1.00
2023-02-02T12:31:46.641Z,0.83
2023-02-02T12:35:06.081Z,1.03
2023-02-02T12:38:11.719Z,1.57
2023-02-02T12:41:07.775Z,1.50
2023-02-02T12:43:58.825Z,0.83
2023-02-02T12:46:48.660Z,1.40
2023-02-02T12:49:58.735Z,0.97
2023-02-02T12:53:17.011Z,1.07
2023-02-02T12:56:54.939Z,1.37
2023-02-02T13:00:00.368Z,1.03
2023-02-02T13:03:16.063Z,0.90
2023-02-02T13:06:31.371Z,0.80
2023-02-02T13:09:14.170Z,0.87
2023-02-02T13:11:55.931Z,0.80
2023-02-02T13:14:45.548Z,0.50
2023-02-02T13:17:43.902Z,0.60
2023-02-02T13:20:53.259Z,0.70
2023-02-02T13:23:32.695Z,0.30
2023-02-02T13:26:16.449Z,0.40
2023-02-02T13:29:10.460Z,0.90
2023-02-02T13:32:19.631Z,0.50
2023-02-02T13:35:19.359Z,0.57
2023-02-02T13:38:20.340Z,0.10
2023-02-02T13:40:59.297Z,0.30
2023-02-02T13:43:57.312Z,0.43
2023-02-02T13:47:21.787Z,1.00
2023-02-02T13:49:58.116Z,0.33
2023-02-02T13:53:34.460Z,0.60
2023-02-02T13:56:25.990Z,0.87
2023-02-02T13:59:08.518Z,0.67
2023-02-02T14:01:36.365Z,0.67
2023-02-02T14:04:04.805Z,0.57
2023-02-02T14:06:56.845Z,0.43
2023-02-02T14:09:31.509Z,0.93
2023-02-02T14:12:10.930Z,0.50
2023-02-02T14:14:40.007Z,0.50
2023-02-02T14:17:19.756Z,0.60
2023-02-02T14:19:59.760Z,0.53
2023-02-02T14:22:48.647Z,1.43
2023-02-02T14:25:33.878Z,0.80
2023-02-02T14:28:33.630Z,0.77
2023-02-02T14:31:43.415Z,1.07
2023-02-02T14:34:44.405Z,0.83
2023-02-02T14:37:34.835Z,1.20
2023-02-02T14:40:11.068Z,0.60
2023-02-02T14:43:28.531Z,1.20
2023-02-02T14:46:13.594Z,0.80
2023-02-02T14:49:03.963Z,0.57
2023-02-02T14:51:34.722Z,0.73
2023-02-02T14:54:18.128Z,1.00
2023-02-02T14:56:49.973Z,0.93
2023-02-02T14:59:34.620Z,0.60
2023-02-02T15:02:15.979Z,0.67
2023-02-02T15:05:38.733Z,0.97
2023-02-02T15:08:29.132Z,0.77
2023-02-02T15:11:23.119Z,1.07
2023-02-02T15:14:07.022Z,1.30
2023-02-02T15:16:38.598Z,1.50
2023-02-02T15:19:28.038Z,1.10
2023-02-02T15:22:04.212Z,0.77
2023-02-02T15:24:36.152Z,1.13
2023-02-02T15:27:08.696Z,0.70
2023-02-02T15:29:49.131Z,0.97
2023-02-02T15:32:27.206Z,0.90
2023-02-02T15:35:04.833Z,0.50
2023-02-02T15:37:41.719Z,0.67
2023-02-02T15:40:21.255Z,0.50
2023-02-02T15:43:05.577Z,0.90
2023-02-02T15:45:52.784Z,0.87
2023-02-02T15:48:23.723Z,1.07
2023-02-02T15:50:57.277Z,1.03
2023-02-02T15:53:47.421Z,1.20
2023-02-02T15:56:29.882Z,1.23
2023-02-02T15:58:59.908Z,1.17
2023-02-02T16:01:33.409Z,1.33
2023-02-02T16:04:33.785Z,1.00
2023-02-02T16:07:02.550Z,0.90
2023-02-02T16:09:35.697Z,1.20
2023-02-02T16:12:05.916Z,1.40
2023-02-02T16:14:38.464Z,1.10
2023-02-02T16:17:23.331Z,1.50
2023-02-02T16:19:57.029Z,1.17
2023-02-02T16:22:26.157Z,1.20
2023-02-02T16:24:58.181Z,1.50
2023-02-02T16:27:28.957Z,1.50
2023-02-02T16:30:15.631Z,1.20
2023-02-02T16:32:45.647Z,1.30
2023-02-02T16:35:39.174Z,1.47
2023-02-02T16:38:35.924Z,1.50
2023-02-02T16:41:29.331Z,1.47
2023-02-02T16:43:56.385Z,1.70
2023-02-02T16:46:47.874Z,1.43
2023-02-02T16:49:23.047Z,1.97
2023-02-02T16:52:18.142Z,1.90
2023-02-02T16:54:56.591Z,1.90
2023-02-02T16:57:30.500Z,1.97
2023-02-02T17:00:07.029Z,1.83
2023-02-02T17:02:45.690Z,2.43
2023-02-02T17:05:29.367Z,3.00
2023-02-02T17:08:05.602Z,3.27
2023-02-02T17:10:39.505Z,3.50
2023-02-02T17:13:40.844Z,5.00
2023-02-02T17:16:16.084Z,3.77
2023-02-02T17:18:43.518Z,6.30
2023-02-02T17:21:19.704Z,4.00
2023-02-02T17:23:46.892Z,3.90
2023-02-02T17:26:14.090Z,3.73
2023-02-02T17:28:43.049Z,4.70
2023-02-02T17:31:18.192Z,4.57
2023-02-02T17:33:45.269Z,4.50
2023-02-02T17:36:15.315Z,3.57
2023-02-02T17:38:42.241Z,3.90
2023-02-02T17:41:12.449Z,3.40
2023-02-02T17:43:39.667Z,4.53
2023-02-02T17:46:12.307Z,4.80
2023-02-02T17:48:39.622Z,3.70
2023-02-02T17:51:16.830Z,5.50
2023-02-02T17:53:45.288Z,4.53
2023-02-02T17:56:12.368Z,4.00
2023-02-02T17:58:42.202Z,3.33
2023-02-02T18:01:12.137Z,2.53
2023-02-02T18:03:43.017Z,2.57
2023-02-02T18:06:11.827Z,2.70
2023-02-02T18:08:38.771Z,3.10
2023-02-02T18:11:05.902Z,2.60
2023-02-02T18:13:33.112Z,2.80
2023-02-02T18:16:01.409Z,3.03
2023-02-02T18:18:30.803Z,2.97
2023-02-02T18:20:58.894Z,2.73
2023-02-02T18:23:26.358Z,2.70
2023-02-02T18:25:53.393Z,2.97
2023-02-02T18:28:23.842Z,3.10
2023-02-02T18:30:50.957Z,2.63
2023-02-02T18:33:19.654Z,3.13
2023-02-02T18:35:48.480Z,3.20
2023-02-02T18:38:15.881Z,3.47
2023-02-02T18:40:43.949Z,2.87
2023-02-02T18:43:11.047Z,2.97
2023-02-02T18:45:38.054Z,3.10
2023-02-02T18:48:05.601Z,2.33
2023-02-02T18:50:32.540Z,1.83
2023-02-02T18:52:59.448Z,1.87
2023-02-02T18:55:26.757Z,2.03
2023-02-02T18:57:53.979Z,2.10
2023-02-02T19:00:23.555Z,10.20
2023-02-02T19:02:52.599Z,1.80
2023-02-02T19:05:38.550Z,1.67
2023-02-02T19:08:07.818Z,1.67
2023-02-02T19:10:37.815Z,1.53
2023-02-02T19:13:20.296Z,1.17
2023-02-02T19:15:49.652Z,1.47
2023-02-02T19:18:23.970Z,1.53
2023-02-02T19:20:52.555Z,1.70
2023-02-02T19:23:23.560Z,3.10
2023-02-02T19:25:56.424Z,2.07
2023-02-02T19:28:25.260Z,1.70
2023-02-02T19:31:01.871Z,1.67
2023-02-02T19:33:52.201Z,1.80
2023-02-02T19:36:27.793Z,2.10
2023-02-02T19:39:25.355Z,2.50
2023-02-02T19:41:56.581Z,3.60
2023-02-02T19:44:26.091Z,3.20
2023-02-02T19:46:56.679Z,3.13
2023-02-02T19:49:35.998Z,4.70
2023-02-02T19:52:04.424Z,4.47
2023-02-02T19:54:41.380Z,3.60
2023-02-02T19:57:27.929Z,3.60
2023-02-02T19:59:55.224Z,3.83
2023-02-02T20:02:41.243Z,3.53
2023-02-02T20:05:11.134Z,4.50
2023-02-02T20:07:41.540Z,3.57
2023-02-02T20:10:46.071Z,2.90
2023-02-02T20:13:23.304Z,2.27
2023-02-02T20:16:03.284Z,2.57
2023-02-02T20:18:48.537Z,2.97
2023-02-02T20:21:46.271Z,4.07
2023-02-02T20:24:45.363Z,5.30
2023-02-02T20:27:23.208Z,5.03
2023-02-02T20:29:53.614Z,5.47
2023-02-02T20:32:40.847Z,5.83
2023-02-02T20:35:42.777Z,5.37
2023-02-02T20:38:34.788Z,6.20
2023-02-02T20:41:02.329Z,5.37
2023-02-02T20:43:29.362Z,8.13
2023-02-02T20:45:56.411Z,6.57
2023-02-02T20:48:25.590Z,8.20
2023-02-02T20:50:52.604Z,12.50
2023-02-02T20:53:19.607Z,10.20
2023-02-02T20:55:46.601Z,11.57
2023-02-02T20:58:13.637Z,8.67
2023-02-02T21:00:40.742Z,10.67
2023-02-02T21:03:07.771Z,9.33
2023-02-02T21:05:34.734Z,9.17
2023-02-02T21:08:01.749Z,7.07
2023-02-02T21:10:29.023Z,6.50
2023-02-02T21:12:56.205Z,7.40
2023-02-02T21:15:23.530Z,8.10
2023-02-02T21:17:50.475Z,6.23
2023-02-02T21:20:18.362Z,6.97
2023-02-02T21:22:45.676Z,6.20
2023-02-02T21:25:12.878Z,6.50
2023-02-02T21:27:44.424Z,5.93
2023-02-02T21:30:13.967Z,6.03
2023-02-02T21:32:44.059Z,5.50
2023-02-02T21:35:11.758Z,5.87
2023-02-02T21:37:40.579Z,5.40
2023-02-02T21:40:18.902Z,5.80
2023-02-02T21:42:49.682Z,6.77
2023-02-02T21:45:22.676Z,6.70
2023-02-02T21:47:58.663Z,6.57
2023-02-02T21:50:33.791Z,7.03
2023-02-02T21:53:27.149Z,6.63
2023-02-02T21:56:00.209Z,7.10
2023-02-02T21:58:38.482Z,5.20
2023-02-02T22:01:41.122Z,6.03
2023-02-02T22:04:31.125Z,6.87
2023-02-02T22:07:13.896Z,4.90
2023-02-02T22:09:44.935Z,4.57
2023-02-02T22:12:25.418Z,6.73
2023-02-02T22:14:57.307Z,4.80
2023-02-02T22:17:37.462Z,5.77
2023-02-02T22:20:36.780Z,6.70
2023-02-02T22:23:04.143Z,8.80
2023-02-02T22:25:35.294Z,6.83
2023-02-02T22:28:44.627Z,5.43
2023-02-02T22:31:13.961Z,5.03
2023-02-02T22:33:40.966Z,5.50
2023-02-02T22:36:08.722Z,6.30
2023-02-02T22:38:35.666Z,5.57
2023-02-02T22:41:03.140Z,5.17
2023-02-02T22:43:32.320Z,5.00
2023-02-02T22:45:59.368Z,4.70
2023-02-02T22:48:26.326Z,4.93
2023-02-02T22:50:55.419Z,4.60
2023-02-02T22:53:22.509Z,4.57
2023-02-02T22:55:59.184Z,5.20
2023-02-02T22:58:26.313Z,4.60
2023-02-02T23:00:53.237Z,4.20
2023-02-02T23:03:20.420Z,5.07
2023-02-02T23:05:47.419Z,4.53
2023-02-02T23:08:14.643Z,4.40
2023-02-02T23:10:41.627Z,3.97
2023-02-02T23:13:09.003Z,4.63
2023-02-02T23:15:36.341Z,4.67
2023-02-02T23:18:03.984Z,5.47
2023-02-02T23:20:31.029Z,4.97
2023-02-02T23:22:57.945Z,5.50
2023-02-02T23:25:25.119Z,4.73
2023-02-02T23:27:52.135Z,4.43
2023-02-02T23:30:21.985Z,4.57
2023-02-02T23:32:49.146Z,4.90
2023-02-02T23:35:19.999Z,4.60
2023-02-02T23:37:49.634Z,4.90
2023-02-02T23:40:17.106Z,4.40
2023-02-02T23:42:44.020Z,4.13
2023-02-02T23:45:10.969Z,4.27
2023-02-02T23:47:39.792Z,4.50
2023-02-02T23:50:09.379Z,4.03
2023-02-02T23:52:37.294Z,4.73
2023-02-02T23:55:05.368Z,4.57
2023-02-02T23:57:33.768Z,4.93
